Terminal Aerodrome Forecast
Issued by NWS

Home | Current Version | Previous Version | Text Only | Print | Product List | Glossary On
Versions: 1 2 3 4 5 6 7 8 9 10 11 12 13 14 15 16 17 18 19 20 21 22 23 24
645
FTUS44 KCRP 262329
TAFLRD
TAF
KLRD 262329Z 2700/2724 16017G24KT P6SM SCT050 BKN150
     FM270300 14014G19KT P6SM VCTS BKN050CB OVC150
     FM270800 15011KT P6SM SCT015 BKN150
      TEMPO 2710/2714 BKN015
     FM271500 18008KT P6SM FEW018 SCT150
     FM271900 20008KT P6SM FEW080=

USA.gov is the U.S. government's official web portal to all federal, state and local government web resources and services.